Terminal Aerodrome Forecast
Issued by NWS Newport/Morehead City, NC

Home | Current Version | Previous Version | Text Only | Print | Product List | Glossary On
Versions: 1 2 3 4 5 6 7 8 9 10 11 12 13
000
FTUS42 KMHX 261720
TAFEWN
TAF
KEWN 261720Z 2618/2718 16009G17KT P6SM BKN050
     FM262200 15006KT P6SM SCT250
     FM270900 VRB03KT 5SM BR SKC
     FM271200 20006KT P6SM SCT080=

USA.gov is the U.S. government's official web portal to all federal, state and local government web resources and services.